Time;durP1;ratioP1;P1;durP2;ratioP2;P2;SDS_P1;SDS_P2;PMS_P1;PMS_P2;Temp;Humidity;BMP_temperature;BMP_pressure;BME280_temperature;BME280_humidity;BME280_pressure;Samples;Min_cycle;Max_cycle;Signal;HPM_P1;HPM_P2
2023/12/27 00:01:24;;;;;;;5.47;0.30;;;;;;;0.49;58.10;101993.41;4962537;28;20177;-66
2023/12/27 00:03:49;;;;;;;6.80;0.85;;;;;;;0.42;58.30;102000.97;4960883;28;20038;-65
2023/12/27 00:06:15;;;;;;;9.00;0.75;;;;;;;0.19;59.72;102003.94;4958626;28;20177;-65
2023/12/27 00:08:40;;;;;;;2.58;0.65;;;;;;;0.40;58.79;102005.22;4958099;28;20065;-65
2023/12/27 00:11:05;;;;;;;1.40;0.20;;;;;;;0.41;58.12;102001.78;4958476;28;20040;-65
2023/12/27 00:13:31;;;;;;;3.70;0.73;;;;;;;0.35;58.34;102017.97;4963820;28;20070;-65
2023/12/27 00:15:56;;;;;;;5.20;0.30;;;;;;;0.37;58.55;102007.72;4957755;28;20038;-65
2023/12/27 00:18:22;;;;;;;11.60;0.70;;;;;;;0.35;58.27;102004.25;4959671;28;20038;-65
2023/12/27 00:20:49;;;;;;;7.85;0.82;;;;;;;0.33;58.16;102017.06;4961674;28;20073;-66
2023/12/27 00:23:15;;;;;;;7.47;1.05;;;;;;;0.25;58.22;102018.59;4958602;28;20035;-66
2023/12/27 00:25:40;;;;;;;11.40;0.50;;;;;;;0.22;58.02;102014.28;4972304;28;20042;-66
2023/12/27 00:28:06;;;;;;;9.50;0.77;;;;;;;0.13;58.12;102014.06;4958748;28;20034;-65
2023/12/27 00:30:32;;;;;;;7.55;0.38;;;;;;;0.04;58.29;102019.88;4966526;28;20129;-65
2023/12/27 00:32:58;;;;;;;5.45;0.60;;;;;;;-0.21;59.51;102018.47;4955975;28;20034;-64
2023/12/27 00:35:23;;;;;;;6.18;0.60;;;;;;;0.01;59.08;102024.06;4957964;28;21080;-65
2023/12/27 00:37:49;;;;;;;8.23;0.43;;;;;;;-0.07;59.76;102030.78;4971895;28;20038;-65
2023/12/27 00:40:14;;;;;;;10.02;0.45;;;;;;;0.04;59.38;102039.59;4963359;28;20042;-64
2023/12/27 00:42:41;;;;;;;7.18;0.60;;;;;;;-0.08;59.41;102029.00;4959189;28;20069;-65
2023/12/27 00:45:06;;;;;;;6.75;0.50;;;;;;;0.01;59.49;102029.22;4963995;28;20053;-67
2023/12/27 00:47:32;;;;;;;10.80;0.70;;;;;;;0.07;59.15;102034.50;4966050;28;20437;-66
2023/12/27 00:49:57;;;;;;;3.10;0.55;;;;;;;-0.05;59.28;102044.53;4957086;28;20579;-67
2023/12/27 00:52:23;;;;;;;9.13;0.95;;;;;;;-0.02;59.43;102040.31;4974294;28;20058;-67
2023/12/27 00:54:48;;;;;;;6.10;0.40;;;;;;;-0.02;59.15;102047.16;4959812;28;20065;-66
2023/12/27 00:57:14;;;;;;;7.35;0.73;;;;;;;-0.03;58.99;102048.00;4970497;28;20038;-67
2023/12/27 00:59:39;;;;;;;1.95;0.47;;;;;;;-0.08;58.73;102040.19;4974942;28;20046;-69
2023/12/27 01:02:06;;;;;;;7.03;0.88;;;;;;;-0.19;59.27;102052.78;4959049;28;20037;-66
2023/12/27 01:04:33;;;;;;;5.40;0.63;;;;;;;-0.21;59.52;102054.44;4961416;28;20560;-66
2023/12/27 01:06:58;;;;;;;7.28;1.10;;;;;;;-0.15;58.98;102057.16;4959194;28;20054;-67
2023/12/27 01:09:24;;;;;;;5.18;1.45;;;;;;;-0.22;58.87;102057.81;4977429;28;20185;-70
2023/12/27 01:11:51;;;;;;;5.63;0.70;;;;;;;-0.26;59.19;102050.00;4963788;28;20065;-70
2023/12/27 01:14:18;;;;;;;10.20;1.98;;;;;;;-0.19;58.78;102051.88;4957640;28;20039;-70
2023/12/27 01:16:44;;;;;;;9.05;1.13;;;;;;;-0.30;59.57;102048.19;4961364;28;20099;-70
2023/12/27 01:19:11;;;;;;;4.72;0.65;;;;;;;-0.40;59.49;102042.84;4969710;28;20046;-71
2023/12/27 01:21:36;;;;;;;10.75;1.25;;;;;;;-0.39;59.66;102043.75;4964082;28;20049;-70
2023/12/27 01:24:02;;;;;;;4.13;0.55;;;;;;;-0.32;59.40;102050.75;4959138;28;20089;-70
2023/12/27 01:26:28;;;;;;;5.72;1.02;;;;;;;-0.37;59.30;102053.22;4964334;28;20042;-70
2023/12/27 01:28:53;;;;;;;2.90;0.30;;;;;;;-0.36;59.19;102054.06;4964086;28;20048;-69
2023/12/27 01:31:19;;;;;;;4.80;1.60;;;;;;;-0.45;59.41;102053.84;4963513;28;20069;-69
2023/12/27 01:33:44;;;;;;;3.00;0.40;;;;;;;-0.43;59.78;102067.59;4959605;28;20027;-70
2023/12/27 01:36:10;;;;;;;2.05;0.30;;;;;;;-0.37;59.77;102058.34;4970377;28;20086;-69
2023/12/27 01:38:35;;;;;;;9.95;1.00;;;;;;;-0.41;59.92;102065.94;4959707;28;20026;-64
2023/12/27 01:41:03;;;;;;;9.27;0.73;;;;;;;-0.40;59.48;102065.09;4958106;28;20039;-65
2023/12/27 01:43:28;;;;;;;4.55;0.75;;;;;;;-0.42;58.92;102064.19;4959173;28;20031;-64
2023/12/27 01:45:54;;;;;;;3.25;0.40;;;;;;;-0.45;59.39;102069.25;4956663;28;20050;-65
2023/12/27 01:48:21;;;;;;;6.65;0.52;;;;;;;-0.47;59.24;102076.06;4954669;28;20125;-67
2023/12/27 01:50:51;;;;;;;5.32;0.40;;;;;;;-0.50;59.19;102068.25;4957202;28;20435;-67
2023/12/27 01:53:18;;;;;;;5.15;1.02;;;;;;;-0.51;60.07;102069.09;4957553;28;20035;-68
2023/12/27 01:55:46;;;;;;;4.45;0.63;;;;;;;-0.48;59.56;102069.16;4958877;28;20136;-66
2023/12/27 01:58:13;;;;;;;9.40;0.95;;;;;;;-0.48;59.71;102075.19;4948378;28;20122;-66
2023/12/27 02:00:41;;;;;;;12.00;1.15;;;;;;;-0.59;60.26;102074.91;4957970;28;20404;-66
2023/12/27 02:03:08;;;;;;;8.60;1.90;;;;;;;-0.50;59.77;102071.72;4970081;28;20057;-65
2023/12/27 02:05:35;;;;;;;5.13;1.65;;;;;;;-0.49;59.35;102070.00;4954988;28;20042;-65
2023/12/27 02:08:01;;;;;;;4.00;0.90;;;;;;;-0.46;59.34;102073.53;4957255;28;20042;-64
2023/12/27 02:10:27;;;;;;;17.98;3.83;;;;;;;-0.46;59.52;102070.97;4952688;28;20050;-68
2023/12/27 02:12:54;;;;;;;14.60;3.08;;;;;;;-0.50;59.62;102076.84;4970542;28;20089;-68
2023/12/27 02:15:19;;;;;;;17.30;1.90;;;;;;;-0.54;59.96;102075.03;4959671;28;20050;-66
2023/12/27 02:17:45;;;;;;;4.68;0.80;;;;;;;-0.49;59.42;102081.16;4965377;28;20030;-66
2023/12/27 02:20:11;;;;;;;5.97;0.60;;;;;;;-0.54;59.33;102077.59;4971637;28;20062;-65
2023/12/27 02:22:39;;;;;;;8.98;0.63;;;;;;;-0.68;60.20;102081.50;4954671;28;20034;-66
2023/12/27 02:25:05;;;;;;;5.50;0.30;;;;;;;-0.58;60.06;102089.47;4955032;28;20097;-65
2023/12/27 02:27:30;;;;;;;4.97;0.55;;;;;;;-0.59;60.26;102079.19;4955430;28;20040;-65
2023/12/27 02:29:56;;;;;;;10.43;1.00;;;;;;;-0.57;59.96;102075.84;4957149;28;20117;-66
2023/12/27 02:32:23;;;;;;;11.85;0.55;;;;;;;-0.62;59.93;102081.66;4970108;28;20035;-65
2023/12/27 02:34:49;;;;;;;6.30;0.63;;;;;;;-0.56;59.82;102082.69;4955386;28;20042;-66
2023/12/27 02:37:15;;;;;;;7.07;0.82;;;;;;;-0.62;60.39;102082.53;4956583;28;20500;-65
2023/12/27 02:39:40;;;;;;;3.95;0.38;;;;;;;-0.49;60.04;102081.16;4956737;28;20437;-65
2023/12/27 02:42:06;;;;;;;2.75;0.77;;;;;;;-0.49;59.74;102078.59;4954686;28;20448;-65
2023/12/27 02:44:31;;;;;;;2.22;0.38;;;;;;;-0.50;59.93;102078.53;4956205;28;20030;-65
2023/12/27 02:46:56;;;;;;;9.43;0.45;;;;;;;-0.39;59.41;102074.56;4954098;28;20084;-65
2023/12/27 02:49:22;;;;;;;7.38;0.30;;;;;;;-0.54;60.18;102077.59;4957075;28;20054;-65
2023/12/27 02:51:48;;;;;;;7.30;0.50;;;;;;;-0.49;59.94;102067.44;4959554;28;20031;-65
2023/12/27 02:54:13;;;;;;;10.77;0.40;;;;;;;-0.45;59.27;102053.84;4971014;28;20038;-65
2023/12/27 02:56:39;;;;;;;6.90;0.50;;;;;;;-0.51;59.09;102059.69;4957745;28;20551;-65
2023/12/27 02:59:05;;;;;;;5.20;0.55;;;;;;;-0.66;59.63;102054.16;4953002;28;20045;-66
2023/12/27 03:01:30;;;;;;;1.88;0.40;;;;;;;-0.62;59.44;102049.16;4956790;28;20035;-66
2023/12/27 03:03:56;;;;;;;3.08;0.35;;;;;;;-0.65;59.45;102056.78;4954184;28;20057;-65
2023/12/27 03:06:21;;;;;;;4.30;0.20;;;;;;;-0.64;59.63;102058.53;4961686;28;20081;-66
2023/12/27 03:08:47;;;;;;;2.42;0.43;;;;;;;-0.59;59.24;102056.94;4956354;28;20034;-65
2023/12/27 03:11:12;;;;;;;4.35;0.60;;;;;;;-0.58;59.30;102063.81;4954514;28;20038;-66
2023/12/27 03:13:38;;;;;;;7.55;0.50;;;;;;;-0.69;59.60;102065.22;4957095;28;20034;-66
2023/12/27 03:16:07;;;;;;;2.80;0.40;;;;;;;-0.76;60.29;102061.63;4967503;28;20121;-65
2023/12/27 03:18:33;;;;;;;4.00;0.65;;;;;;;-0.62;59.72;102067.13;4973533;28;20026;-64
2023/12/27 03:20:59;;;;;;;5.15;0.30;;;;;;;-0.67;59.95;102067.84;4955684;28;20035;-66
2023/12/27 03:23:25;;;;;;;4.55;0.80;;;;;;;-0.67;59.93;102067.84;4956070;28;20034;-68
2023/12/27 03:25:51;;;;;;;4.60;0.70;;;;;;;-0.67;59.81;102061.00;4955092;28;20613;-66
2023/12/27 03:28:16;;;;;;;8.27;1.23;;;;;;;-0.76;59.86;102069.34;4956529;28;20151;-66
2023/12/27 03:30:42;;;;;;;4.32;0.73;;;;;;;-0.80;59.74;102054.69;4954659;28;20135;-66
2023/12/27 03:33:07;;;;;;;4.55;0.65;;;;;;;-0.72;59.65;102059.16;4959226;28;20065;-65
2023/12/27 03:35:33;;;;;;;6.03;0.60;;;;;;;-0.72;59.78;102054.91;4947887;28;20042;-65
2023/12/27 03:37:58;;;;;;;3.05;0.60;;;;;;;-0.84;59.99;102046.84;4973755;28;20115;-65
2023/12/27 03:40:24;;;;;;;5.65;0.77;;;;;;;-0.84;60.17;102044.28;4960453;28;20042;-65
2023/12/27 03:42:51;;;;;;;5.13;0.45;;;;;;;-0.79;59.88;102045.31;4961181;28;20089;-65
2023/12/27 03:45:18;;;;;;;4.07;0.63;;;;;;;-0.77;59.49;102046.22;4949964;28;20046;-65
2023/12/27 03:47:44;;;;;;;4.90;0.38;;;;;;;-0.76;59.11;102042.81;4957063;28;20504;-64
2023/12/27 03:50:11;;;;;;;2.15;0.47;;;;;;;-0.82;59.56;102040.94;4971028;28;20038;-65
2023/12/27 03:52:37;;;;;;;7.00;0.55;;;;;;;-0.88;59.54;102047.63;4958391;28;20300;-66
2023/12/27 03:55:02;;;;;;;4.63;0.70;;;;;;;-1.05;60.26;102042.91;4972848;28;20038;-66
2023/12/27 03:57:28;;;;;;;5.30;0.60;;;;;;;-0.94;60.61;102037.19;4971865;28;21040;-66
2023/12/27 03:59:53;;;;;;;3.08;0.35;;;;;;;-0.89;59.97;102033.91;4959610;28;20471;-65
2023/12/27 04:02:19;;;;;;;11.18;0.90;;;;;;;-0.91;59.39;102038.13;4959145;28;20038;-66
2023/12/27 04:04:46;;;;;;;1.75;0.30;;;;;;;-0.93;59.66;102031.22;4974309;28;20030;-66
2023/12/27 04:07:12;;;;;;;8.32;0.57;;;;;;;-0.94;59.16;102029.50;4969239;28;20030;-65
2023/12/27 04:09:39;;;;;;;5.68;0.68;;;;;;;-0.89;58.92;102026.22;4958980;28;20057;-66
2023/12/27 04:12:06;;;;;;;2.88;0.22;;;;;;;-0.93;58.75;102029.50;4960135;28;20035;-65
2023/12/27 04:14:32;;;;;;;4.18;0.38;;;;;;;-0.94;58.99;102032.94;4955987;28;20127;-65
2023/12/27 04:16:57;;;;;;;2.97;0.40;;;;;;;-1.07;58.78;102036.81;4965531;28;20038;-66
2023/12/27 04:19:23;;;;;;;5.05;0.60;;;;;;;-1.09;59.07;102035.03;4957234;28;20496;-65
2023/12/27 04:21:48;;;;;;;4.22;0.50;;;;;;;-1.14;58.95;102034.91;4959711;28;20034;-65
2023/12/27 04:24:14;;;;;;;3.17;0.47;;;;;;;-1.16;59.40;102041.72;4962934;28;20970;-65
2023/12/27 04:26:40;;;;;;;3.70;0.55;;;;;;;-1.19;59.72;102034.81;4971844;28;20453;-66
2023/12/27 04:29:07;;;;;;;1.13;0.32;;;;;;;-1.07;59.68;102033.41;4959675;28;22706;-65
2023/12/27 04:31:33;;;;;;;6.28;1.00;;;;;;;-1.06;59.43;102030.91;4958490;28;20041;-65
2023/12/27 04:33:59;;;;;;;7.28;1.45;;;;;;;-1.09;59.50;102030.78;4949761;28;20740;-66
2023/12/27 04:36:25;;;;;;;4.95;0.40;;;;;;;-1.06;59.79;102038.59;4959152;28;20031;-65
2023/12/27 04:38:50;;;;;;;7.88;0.90;;;;;;;-1.10;60.25;102041.88;4973955;28;20053;-66
2023/12/27 04:41:17;;;;;;;1.60;0.80;;;;;;;-1.02;60.29;102045.56;4955753;28;20757;-65
2023/12/27 04:43:43;;;;;;;5.88;0.73;;;;;;;-1.02;59.96;102045.56;4966916;28;20393;-66
2023/12/27 04:46:08;;;;;;;5.03;0.32;;;;;;;-1.16;60.82;102041.72;4957374;28;20062;-65
2023/12/27 04:48:34;;;;;;;14.40;1.42;;;;;;;-1.12;60.78;102040.09;4958943;28;20042;-65
2023/12/27 04:51:00;;;;;;;5.35;0.20;;;;;;;-1.10;60.63;102036.75;4942632;28;20053;-65
2023/12/27 04:53:25;;;;;;;10.05;0.60;;;;;;;-1.07;60.17;102035.97;4961469;28;20034;-65
2023/12/27 04:55:51;;;;;;;3.00;0.32;;;;;;;-1.04;60.04;102034.38;4961613;28;20604;-65
2023/12/27 04:58:16;;;;;;;8.65;0.40;;;;;;;-1.03;59.88;102036.13;4955802;28;21554;-65
2023/12/27 05:00:42;;;;;;;3.55;0.25;;;;;;;-1.06;59.73;102036.03;4958826;28;20042;-63
2023/12/27 05:03:08;;;;;;;5.60;0.57;;;;;;;-1.09;59.90;102038.47;4956567;28;20578;-68
2023/12/27 05:05:34;;;;;;;5.43;0.93;;;;;;;-1.09;60.10;102038.47;4960509;28;22016;-68
2023/12/27 05:08:02;;;;;;;9.15;0.52;;;;;;;-1.19;60.22;102041.63;4969794;28;20110;-68
2023/12/27 05:10:28;;;;;;;6.47;0.25;;;;;;;-1.12;60.21;102043.53;4958395;28;20039;-64
2023/12/27 05:12:54;;;;;;;6.63;0.93;;;;;;;-1.18;60.61;102043.34;4958666;28;20102;-67
2023/12/27 05:15:19;;;;;;;10.32;0.68;;;;;;;-1.41;60.93;102040.16;4967003;28;20049;-67
2023/12/27 05:17:46;;;;;;;10.98;0.73;;;;;;;-1.24;60.60;102043.19;4957953;28;20061;-66
2023/12/27 05:20:11;;;;;;;3.80;0.60;;;;;;;-1.43;60.91;102037.53;4958763;28;20757;-67
2023/12/27 05:22:39;;;;;;;3.33;0.50;;;;;;;-1.31;60.58;102041.28;4959183;28;20046;-67
2023/12/27 05:25:06;;;;;;;7.80;0.60;;;;;;;-1.22;60.48;102046.66;4957332;28;20041;-67
2023/12/27 05:27:32;;;;;;;3.90;0.65;;;;;;;-1.22;60.63;102038.97;4965333;28;20038;-67
2023/12/27 05:29:58;;;;;;;7.50;0.75;;;;;;;-1.21;60.18;102045.84;4956561;28;20046;-67
2023/12/27 05:32:24;;;;;;;5.22;0.50;;;;;;;-1.18;60.27;102035.66;4960415;28;20038;-66
2023/12/27 05:34:52;;;;;;;4.95;0.85;;;;;;;-1.05;59.93;102031.78;4959685;28;20050;-67
2023/12/27 05:37:20;;;;;;;5.00;0.30;;;;;;;-1.09;59.87;102033.34;4968623;28;20069;-67
2023/12/27 05:39:46;;;;;;;5.78;0.70;;;;;;;-1.02;59.80;102037.88;4955727;28;20302;-68
2023/12/27 05:42:13;;;;;;;3.60;0.68;;;;;;;-1.02;59.66;102035.31;4958009;28;20042;-69
2023/12/27 05:44:39;;;;;;;4.05;0.75;;;;;;;-1.03;59.64;102030.97;4957038;28;20500;-65
2023/12/27 05:47:05;;;;;;;2.92;0.60;;;;;;;-1.15;60.54;102029.75;4954707;28;20085;-63
2023/12/27 05:49:31;;;;;;;7.85;0.90;;;;;;;-1.05;60.32;102030.06;4958822;28;20034;-69
2023/12/27 05:51:57;;;;;;;4.13;0.65;;;;;;;-1.10;60.44;102034.19;4957054;28;20096;-65
2023/12/27 05:54:23;;;;;;;8.52;0.80;;;;;;;-1.05;60.43;102035.19;4956265;28;20632;-66
2023/12/27 05:56:49;;;;;;;3.97;0.45;;;;;;;-0.90;60.15;102044.16;4955262;28;20084;-66
2023/12/27 05:59:15;;;;;;;3.85;0.40;;;;;;;-0.89;59.84;102035.59;4953948;28;20042;-66
2023/12/27 06:01:47;;;;;;;5.47;0.50;;;;;;;-0.92;59.87;102040.69;4957060;28;20041;-66
2023/12/27 06:04:14;;;;;;;;;;;;;;;-0.88;60.00;102037.38;4975492;28;20041;-66
2023/12/27 06:06:39;;;;;;;5.63;0.80;;;;;;;-0.84;59.64;102037.47;4958900;28;20518;-67
2023/12/27 06:09:05;;;;;;;9.40;0.70;;;;;;;-0.94;59.60;102047.47;4954020;28;22713;-65
2023/12/27 06:11:31;;;;;;;5.32;0.40;;;;;;;-0.85;59.67;102035.72;4958541;28;20490;-64
2023/12/27 06:13:56;;;;;;;2.30;0.60;;;;;;;-0.83;59.80;102035.78;4972263;28;20050;-64
2023/12/27 06:16:21;;;;;;;10.30;0.63;;;;;;;-0.89;59.56;102026.22;4957627;28;20034;-66
2023/12/27 06:18:47;;;;;;;9.75;0.93;;;;;;;-0.85;59.74;102032.31;4961526;28;20042;-67
2023/12/27 06:21:12;;;;;;;4.53;0.75;;;;;;;-0.87;59.62;102021.97;4964934;28;20088;-66
2023/12/27 06:23:38;;;;;;;3.42;0.60;;;;;;;-0.85;59.65;102022.03;4957348;28;20027;-67
2023/12/27 06:26:03;;;;;;;4.68;0.77;;;;;;;-0.83;59.66;102004.97;4973608;28;20141;-68
2023/12/27 06:28:29;;;;;;;6.82;0.60;;;;;;;-0.92;59.64;101994.47;4961262;28;20038;-67
2023/12/27 06:30:54;;;;;;;4.28;0.40;;;;;;;-0.97;59.63;101996.94;4966033;28;20416;-66
2023/12/27 06:33:20;;;;;;;2.80;0.40;;;;;;;-1.00;59.86;102001.97;4961236;28;20031;-66
2023/12/27 06:35:46;;;;;;;1.58;0.50;;;;;;;-0.97;59.46;102007.19;4964398;28;20050;-67
2023/12/27 06:38:11;;;;;;;5.05;0.85;;;;;;;-0.97;59.70;102002.91;4948731;28;20030;-69
2023/12/27 06:40:37;;;;;;;1.58;0.35;;;;;;;-0.93;59.38;102008.13;4956389;28;20075;-67
2023/12/27 06:43:02;;;;;;;3.00;0.50;;;;;;;-0.93;59.45;102006.41;4973338;28;20038;-67
2023/12/27 06:45:28;;;;;;;4.60;0.52;;;;;;;-0.91;60.23;102006.47;4953594;28;20034;-67
2023/12/27 06:47:53;;;;;;;9.85;0.75;;;;;;;-0.87;59.51;102003.16;4958426;28;20035;-67
2023/12/27 06:50:19;;;;;;;6.57;0.65;;;;;;;-0.87;59.61;102003.16;4955698;28;20083;-67
2023/12/27 06:52:44;;;;;;;8.32;0.60;;;;;;;-0.93;59.27;101997.84;4956719;28;20120;-67
2023/12/27 06:55:10;;;;;;;8.68;1.20;;;;;;;-0.93;59.36;102005.56;4952787;28;20042;-68
2023/12/27 06:57:35;;;;;;;5.15;0.77;;;;;;;-0.92;59.60;101999.59;4957869;28;20031;-66
2023/12/27 07:00:01;;;;;;;6.57;1.20;;;;;;;-0.91;59.48;101998.75;4957269;28;20585;-70
2023/12/27 07:02:26;;;;;;;10.93;1.00;;;;;;;-0.82;59.41;101996.44;4955742;28;20026;-70
2023/12/27 07:04:51;;;;;;;1.70;0.30;;;;;;;-0.83;59.09;101999.84;4957239;28;20053;-69
2023/12/27 07:07:17;;;;;;;5.80;0.40;;;;;;;-0.80;59.15;102005.03;4968621;28;20516;-69
2023/12/27 07:09:42;;;;;;;6.75;0.75;;;;;;;-0.80;59.00;102008.47;4974857;28;20042;-66
2023/12/27 07:12:09;;;;;;;7.78;0.40;;;;;;;-0.76;59.14;102015.41;4957604;28;20053;-67
2023/12/27 07:14:35;;;;;;;3.22;0.50;;;;;;;-0.77;59.15;102007.69;4959584;28;20054;-66
2023/12/27 07:17:03;;;;;;;3.60;0.60;;;;;;;-0.83;59.00;102010.09;4958091;28;20460;-68
2023/12/27 07:19:29;;;;;;;4.28;0.40;;;;;;;-0.83;59.60;102002.41;4960315;28;20062;-68
2023/12/27 07:21:55;;;;;;;8.18;0.47;;;;;;;-0.89;59.37;102007.38;4975312;28;20117;-71
2023/12/27 07:24:22;;;;;;;5.32;0.47;;;;;;;-0.91;59.59;102009.91;4962505;28;20042;-69
2023/12/27 07:26:48;;;;;;;7.28;1.33;;;;;;;-1.06;60.05;102018.09;4964938;28;20046;-66
2023/12/27 07:29:13;;;;;;;5.65;0.82;;;;;;;-1.05;60.17;102019.81;4953265;28;20699;-69
2023/12/27 07:31:39;;;;;;;7.53;0.70;;;;;;;-1.11;60.55;102019.59;4978281;28;20093;-65
2023/12/27 07:34:04;;;;;;;7.68;0.60;;;;;;;-1.04;60.36;102011.28;4960617;28;20046;-68
2023/12/27 07:36:30;;;;;;;9.35;0.73;;;;;;;-1.02;60.53;102009.63;4959237;28;20039;-68
2023/12/27 07:38:56;;;;;;;5.13;0.45;;;;;;;-0.71;59.51;102010.41;4957585;28;20039;-71
2023/12/27 07:41:21;;;;;;;4.38;0.47;;;;;;;-0.71;59.38;102010.41;4959562;28;20101;-67
2023/12/27 07:43:47;;;;;;;10.88;0.65;;;;;;;-0.72;59.38;102003.53;4955574;28;20050;-64
2023/12/27 07:46:12;;;;;;;8.88;1.58;;;;;;;-0.73;59.14;102001.78;4957538;28;20129;-63
2023/12/27 07:48:38;;;;;;;3.42;0.60;;;;;;;-0.71;58.98;102004.41;4958115;28;20100;-67
2023/12/27 07:51:03;;;;;;;2.85;0.52;;;;;;;-0.73;59.26;102003.50;4959033;28;20137;-69
2023/12/27 07:53:29;;;;;;;3.63;0.73;;;;;;;-0.73;59.04;102001.78;4957563;28;20129;-68
2023/12/27 07:55:55;;;;;;;8.10;1.40;;;;;;;-0.69;59.08;101995.91;4958115;28;20728;-67
2023/12/27 07:58:21;;;;;;;4.97;0.60;;;;;;;-0.68;59.21;102000.22;4957081;28;20113;-73
2023/12/27 08:00:46;;;;;;;3.00;0.45;;;;;;;-0.69;58.93;102001.03;4970244;28;20046;-70
2023/12/27 08:03:12;;;;;;;4.63;0.77;;;;;;;-0.66;58.93;102003.72;4959428;28;20043;-69
2023/12/27 08:05:37;;;;;;;3.17;0.60;;;;;;;-0.64;58.95;101998.59;4957795;28;20588;-64
2023/12/27 08:08:03;;;;;;;10.27;1.02;;;;;;;-0.66;58.93;101993.44;4943152;28;20531;-66
2023/12/27 08:10:31;;;;;;;5.45;1.10;;;;;;;-0.63;59.04;101997.78;4957674;28;22464;-65
2023/12/27 08:12:57;;;;;;;4.50;1.10;;;;;;;-0.62;58.88;101991.78;4974131;28;20353;-69
2023/12/27 08:15:24;;;;;;;5.85;1.15;;;;;;;-0.59;58.90;101997.88;4958238;28;20052;-70
2023/12/27 08:17:49;;;;;;;6.10;1.13;;;;;;;-0.58;58.83;101999.59;4959006;28;20039;-70
2023/12/27 08:20:15;;;;;;;4.20;0.90;;;;;;;-0.57;58.82;101996.22;4956061;28;20540;-68
2023/12/27 08:22:40;;;;;;;3.72;0.95;;;;;;;-0.53;59.03;101988.56;4957581;28;20114;-65
2023/12/27 08:25:12;;;;;;;13.40;1.60;;;;;;;-0.47;58.86;101989.59;4971090;28;20540;-64
2023/12/27 08:27:38;;;;;;;7.25;1.00;;;;;;;-0.40;58.97;101985.47;4954920;28;20030;-64
2023/12/27 08:30:05;;;;;;;9.55;2.90;;;;;;;-0.36;58.69;101988.16;4957647;28;20592;-65
2023/12/27 08:32:31;;;;;;;9.35;2.88;;;;;;;-0.31;58.72;101982.25;4955857;28;20803;-69
2023/12/27 08:34:56;;;;;;;16.85;4.05;;;;;;;-0.28;58.70;101988.34;4958578;28;20039;-66
2023/12/27 08:37:22;;;;;;;21.50;6.43;;;;;;;-0.21;58.60;101976.50;4967636;28;20074;-67
2023/12/27 08:39:48;;;;;;;14.55;4.15;;;;;;;-0.18;58.42;101985.13;4955159;28;20050;-67
2023/12/27 08:42:14;;;;;;;12.95;2.75;;;;;;;-0.22;58.53;101980.75;4954214;28;21035;-67
2023/12/27 08:44:39;;;;;;;15.80;5.65;;;;;;;-0.18;58.57;101981.69;4968172;28;20046;-67
2023/12/27 08:47:05;;;;;;;8.85;2.55;;;;;;;-0.10;58.27;101979.28;4955869;28;20093;-64
2023/12/27 08:49:31;;;;;;;5.82;2.80;;;;;;;-0.00;58.54;101981.22;4954896;28;21184;-66
2023/12/27 08:51:58;;;;;;;5.53;1.83;;;;;;;0.03;58.44;101981.28;4964647;28;20071;-70
2023/12/27 08:54:25;;;;;;;7.25;1.83;;;;;;;0.06;58.28;101981.38;4960046;28;20046;-70
2023/12/27 08:56:50;;;;;;;7.70;2.03;;;;;;;-0.03;58.47;101966.63;4961752;28;20477;-68
2023/12/27 08:59:16;;;;;;;6.53;1.48;;;;;;;0.11;58.49;101969.47;4955417;28;20117;-68
2023/12/27 09:01:42;;;;;;;5.18;1.42;;;;;;;0.15;58.28;101955.84;4967440;28;20026;-68
2023/12/27 09:04:08;;;;;;;7.40;1.27;;;;;;;0.23;58.24;101964.59;4959008;28;20043;-69
2023/12/27 09:06:33;;;;;;;5.70;1.65;;;;;;;0.25;57.96;101960.31;4971719;28;20030;-69
2023/12/27 09:08:59;;;;;;;8.15;2.63;;;;;;;0.33;58.00;101964.78;4956913;28;20581;-66
2023/12/27 09:11:25;;;;;;;6.55;1.25;;;;;;;0.39;58.13;101970.03;4956680;28;20034;-65
2023/12/27 09:13:51;;;;;;;3.72;1.58;;;;;;;0.39;57.70;101962.31;4964558;28;20636;-65
2023/12/27 09:16:17;;;;;;;4.20;1.45;;;;;;;0.41;57.91;101963.22;4962441;28;20071;-65
2023/12/27 09:18:43;;;;;;;6.10;2.35;;;;;;;0.44;57.72;101959.00;4960641;28;20087;-65
2023/12/27 09:21:09;;;;;;;9.65;2.28;;;;;;;0.56;57.74;101963.50;4956675;28;20046;-64
2023/12/27 09:23:34;;;;;;;6.72;1.70;;;;;;;0.59;57.72;101958.44;4957059;28;20101;-64
2023/12/27 09:26:00;;;;;;;4.15;2.25;;;;;;;0.61;57.46;101954.19;4958370;28;20074;-65
2023/12/27 09:28:27;;;;;;;11.93;2.70;;;;;;;0.62;57.14;101955.91;4969530;28;21396;-65
2023/12/27 09:30:53;;;;;;;6.07;1.38;;;;;;;0.61;57.52;101955.88;4956252;28;21042;-64
2023/12/27 09:33:18;;;;;;;6.07;1.05;;;;;;;0.64;57.06;101951.66;4970986;28;20571;-65
2023/12/27 09:35:44;;;;;;;8.20;1.35;;;;;;;0.61;57.31;101941.34;4958219;28;20558;-65
2023/12/27 09:38:09;;;;;;;15.13;6.18;;;;;;;0.68;57.24;101942.31;4955434;28;20564;-64
2023/12/27 09:40:35;;;;;;;7.85;3.88;;;;;;;0.65;56.86;101942.22;4959195;28;20531;-64
2023/12/27 09:43:04;;;;;;;11.43;1.70;;;;;;;0.67;57.37;101938.84;4957977;28;20517;-65
2023/12/27 09:45:35;;;;;;;6.72;1.40;;;;;;;0.68;57.01;101943.16;4952447;28;20086;-65
2023/12/27 09:48:06;;;;;;;4.40;1.48;;;;;;;0.61;57.02;101943.00;4958619;28;20058;-64
2023/12/27 09:50:36;;;;;;;2.80;0.80;;;;;;;0.58;57.17;101938.69;4967779;28;20038;-64
2023/12/27 09:53:04;;;;;;;3.53;0.75;;;;;;;0.58;57.03;101951.53;4958440;28;20073;-64
2023/12/27 09:55:32;;;;;;;6.13;0.95;;;;;;;0.54;56.99;101944.59;4965266;28;20453;-64
2023/12/27 09:57:58;;;;;;;3.03;0.50;;;;;;;0.66;57.45;101939.69;4968766;28;20046;-64
2023/12/27 10:00:28;;;;;;;2.22;0.75;;;;;;;0.68;56.82;101932.88;4952001;28;20039;-65
2023/12/27 10:02:58;;;;;;;2.45;0.85;;;;;;;0.67;56.83;101930.25;4954041;28;21912;-64
2023/12/27 10:05:31;;;;;;;6.07;1.17;;;;;;;0.57;57.17;101923.19;4953043;28;20109;-64
2023/12/27 10:07:57;;;;;;;10.57;0.98;;;;;;;0.69;57.06;101918.28;4954363;28;20087;-65
2023/12/27 10:10:22;;;;;;;15.48;1.73;;;;;;;0.50;57.41;101917.06;4951427;28;20107;-65
2023/12/27 10:12:49;;;;;;;6.63;1.17;;;;;;;0.59;57.42;101912.13;4967602;28;20871;-64
2023/12/27 10:15:15;;;;;;;3.75;1.10;;;;;;;0.68;56.61;101917.44;4955092;28;20693;-64
2023/12/27 10:17:41;;;;;;;5.25;1.42;;;;;;;0.74;56.63;101908.94;4948867;28;20070;-64
2023/12/27 10:20:08;;;;;;;5.00;1.50;;;;;;;0.73;56.58;101896.06;4956290;28;20160;-65
2023/12/27 10:22:33;;;;;;;6.57;1.38;;;;;;;0.82;56.23;101888.50;4952867;28;20168;-64
2023/12/27 10:24:59;;;;;;;8.02;1.60;;;;;;;0.84;56.34;101889.41;4952289;28;20046;-65
2023/12/27 10:27:29;;;;;;;4.47;1.13;;;;;;;0.87;56.27;101871.41;4954444;28;20045;-64
2023/12/27 10:29:56;;;;;;;4.97;0.88;;;;;;;1.06;55.83;101859.69;4959393;28;21317;-65
2023/12/27 10:32:22;;;;;;;7.25;1.10;;;;;;;1.16;55.73;101853.84;4967324;28;20046;-64
2023/12/27 10:34:48;;;;;;;5.00;0.85;;;;;;;1.12;55.82;101852.06;4966021;28;20084;-64
2023/12/27 10:37:13;;;;;;;5.38;0.68;;;;;;;0.92;56.37;101838.88;4971256;28;20038;-64
2023/12/27 10:39:46;;;;;;;13.43;1.83;;;;;;;0.98;56.21;101839.00;4949210;28;20046;-64
2023/12/27 10:42:16;;;;;;;5.00;1.48;;;;;;;1.19;56.02;101835.00;4962719;28;20571;-64
2023/12/27 10:44:48;;;;;;;4.35;0.90;;;;;;;0.91;56.31;101826.88;4951453;28;20095;-65
2023/12/27 10:47:17;;;;;;;;;;;;;;;1.10;55.95;101833.16;4955136;28;20035;-65
2023/12/27 10:49:47;;;;;;;4.60;0.60;;;;;;;1.04;56.12;101823.63;4953532;28;20296;-64
2023/12/27 10:52:15;;;;;;;12.23;1.70;;;;;;;1.13;55.81;101819.44;4972835;28;20902;-64
2023/12/27 10:54:45;;;;;;;15.38;1.65;;;;;;;1.24;55.46;101805.03;4951220;28;20593;-65
2023/12/27 10:57:17;;;;;;;8.60;1.75;;;;;;;1.23;55.27;101801.56;4956915;28;20145;-64
2023/12/27 10:59:44;;;;;;;;;;;;;;;1.24;55.55;101794.75;4956791;28;20046;-65
2023/12/27 11:02:12;;;;;;;6.35;1.02;;;;;;;1.24;55.93;101787.88;4959131;28;19913;-64
2023/12/27 11:04:41;;;;;;;7.45;1.60;;;;;;;1.25;55.72;101784.44;4947823;28;21418;-64
2023/12/27 11:07:08;;;;;;;5.22;1.00;;;;;;;1.36;55.33;101779.44;4963086;28;20045;-65
2023/12/27 11:09:38;;;;;;;8.15;1.45;;;;;;;1.09;56.22;101774.78;4950434;28;20043;-65
2023/12/27 11:12:07;;;;;;;10.15;1.95;;;;;;;1.28;55.81;101773.31;4956513;28;20077;-65
2023/12/27 11:14:36;;;;;;;2.35;0.93;;;;;;;1.25;55.91;101756.09;4950084;28;20030;-64
2023/12/27 11:17:05;;;;;;;5.60;1.00;;;;;;;1.24;55.82;101758.69;4972580;28;20034;-65
2023/12/27 11:19:33;;;;;;;4.15;1.33;;;;;;;1.28;56.07;101739.81;4950406;28;20047;-65
2023/12/27 11:21:58;;;;;;;7.57;0.98;;;;;;;1.48;55.44;101737.53;4957273;28;20081;-64